KGTF

Great Falls International Airport

Great Falls, Montana, USA
METAR KGTF 191453Z 20010KT 10SM CLR M02/M07 A3015 RMK AO2 SLP252 T10171067 53003
Observed Flight Rules
Nov-19 @ 14:53 UTC (an hour ago) Visual Flight Rules
Wind Visibility Clouds
200° at 10 knots 10 miles
  • Clear skies
Temperatures Readings
Current -2°C / 28°F
Dewpoint -7°C / 19°F
Humidity 69%
Altimeter 30.15" Hg
Pressure 1025.2 hPa
Elevation 1119
METAR KGTF 191453Z 20010KT 10SM CLR M02/M07 A3015 RMK AO2 SLP252 T10171067 53003
Observed Flight Rules
Nov-19 @ 14:53 UTC
(an hour ago)
VFR
Wind Visibility
200° at 10 knots 10 miles
Clouds
  • Clear skies
Temperature Dewpoint
-2°C / 28°F -7°C / 19°F
Humidity Altimeter Pressure
69% 30.15" Hg 1025.2 hPa